createdAt,value
2023-08-17T00:01:08.801Z,3.45
2023-08-17T00:03:35.389Z,3.33
2023-08-17T00:06:01.938Z,3.55
2023-08-17T00:08:28.312Z,3.25
2023-08-17T00:10:54.710Z,3.22
2023-08-17T00:13:21.081Z,3.42
2023-08-17T00:15:47.492Z,3.92
2023-08-17T00:18:13.904Z,3.95
2023-08-17T00:20:40.259Z,4.30
2023-08-17T00:23:06.633Z,4.68
2023-08-17T00:25:33.061Z,4.75
2023-08-17T00:27:59.685Z,5.28
2023-08-17T00:30:26.035Z,5.80
2023-08-17T00:32:52.458Z,5.38
2023-08-17T00:35:19.616Z,5.82
2023-08-17T00:37:46.017Z,4.95
2023-08-17T00:40:12.815Z,6.40
2023-08-17T00:42:39.253Z,6.43
2023-08-17T00:45:06.201Z,5.55
2023-08-17T00:47:32.905Z,5.30
2023-08-17T00:50:00.345Z,4.53
2023-08-17T00:52:26.948Z,4.72
2023-08-17T00:54:53.488Z,3.95
2023-08-17T00:57:20.924Z,5.22
2023-08-17T00:59:59.443Z,6.13
2023-08-17T01:02:32.018Z,6.05
2023-08-17T01:04:59.090Z,7.45
2023-08-17T01:07:27.093Z,7.75
2023-08-17T01:09:53.992Z,8.55
2023-08-17T01:12:37.321Z,10.55
2023-08-17T01:15:22.087Z,10.35
2023-08-17T01:18:04.256Z,11.30
2023-08-17T01:20:32.130Z,10.68
2023-08-17T01:23:06.131Z,11.73
2023-08-17T01:25:37.222Z,11.27
2023-08-17T01:28:05.341Z,12.60
2023-08-17T01:30:43.179Z,13.10
2023-08-17T01:33:12.191Z,13.95
2023-08-17T01:36:06.427Z,14.50
2023-08-17T01:38:36.730Z,14.00
2023-08-17T01:41:04.907Z,14.30
2023-08-17T01:43:31.864Z,12.43
2023-08-17T01:46:00.096Z,12.38
2023-08-17T01:48:26.547Z,13.15
2023-08-17T01:50:52.961Z,14.85
2023-08-17T01:53:20.749Z,13.20
2023-08-17T01:55:47.146Z,13.32
2023-08-17T01:58:13.552Z,13.20
2023-08-17T02:00:40.192Z,12.95
2023-08-17T02:03:06.636Z,12.77
2023-08-17T02:05:33.295Z,12.30
2023-08-17T02:07:59.675Z,13.27
2023-08-17T02:10:28.553Z,13.35
2023-08-17T02:13:01.833Z,12.48
2023-08-17T02:15:32.338Z,14.05
2023-08-17T02:18:02.099Z,12.95
2023-08-17T02:20:29.112Z,14.77
2023-08-17T02:22:55.530Z,13.98
2023-08-17T02:25:22.918Z,13.75
2023-08-17T02:27:51.281Z,13.50
2023-08-17T02:30:17.674Z,13.65
2023-08-17T02:32:44.070Z,13.77
2023-08-17T02:35:10.793Z,11.85
2023-08-17T02:37:37.223Z,12.63
2023-08-17T02:40:05.355Z,12.95
2023-08-17T02:42:31.720Z,13.68
2023-08-17T02:44:58.117Z,13.07
2023-08-17T02:47:24.777Z,12.80
2023-08-17T02:49:51.597Z,12.98
2023-08-17T02:52:18.020Z,13.90
2023-08-17T02:54:44.426Z,13.85
2023-08-17T02:57:10.942Z,13.10
2023-08-17T02:59:37.371Z,14.02
2023-08-17T03:02:05.312Z,13.43
2023-08-17T03:04:31.687Z,14.07
2023-08-17T03:06:58.105Z,15.27
2023-08-17T03:09:24.470Z,15.50
2023-08-17T03:11:50.856Z,15.40
2023-08-17T03:14:17.400Z,13.90
2023-08-17T03:16:43.835Z,15.27
2023-08-17T03:19:12.219Z,14.23
2023-08-17T03:21:40.885Z,15.60
2023-08-17T03:24:08.385Z,15.07
2023-08-17T03:26:34.834Z,15.35
2023-08-17T03:29:01.500Z,15.07
2023-08-17T03:31:27.855Z,15.55
2023-08-17T03:33:56.593Z,15.57
2023-08-17T03:36:23.548Z,14.27
2023-08-17T03:38:50.969Z,14.38
2023-08-17T03:41:19.597Z,15.15
2023-08-17T03:43:46.499Z,13.88
2023-08-17T03:46:13.998Z,13.77
2023-08-17T03:48:40.379Z,12.90
2023-08-17T03:51:06.873Z,11.90
2023-08-17T03:53:33.252Z,11.80
2023-08-17T03:55:59.795Z,11.85
2023-08-17T03:58:27.829Z,10.07
2023-08-17T04:00:54.499Z,9.73
2023-08-17T04:03:26.690Z,10.57
2023-08-17T04:05:53.136Z,10.80
2023-08-17T04:08:20.927Z,9.63
2023-08-17T04:10:47.400Z,8.43
2023-08-17T04:13:13.756Z,8.52
2023-08-17T04:15:40.106Z,6.60
2023-08-17T04:18:06.631Z,6.32
2023-08-17T04:20:33.068Z,5.88
2023-08-17T04:22:59.446Z,5.65
2023-08-17T04:25:26.419Z,4.72
2023-08-17T04:27:52.837Z,5.32
2023-08-17T04:30:19.655Z,4.22
2023-08-17T04:32:55.135Z,4.43
2023-08-17T04:35:22.113Z,4.47
2023-08-17T04:37:48.579Z,3.60
2023-08-17T04:40:15.612Z,3.10
2023-08-17T04:42:43.141Z,3.28
2023-08-17T04:45:09.968Z,3.28
2023-08-17T04:47:40.774Z,2.75
2023-08-17T04:50:07.738Z,2.85
2023-08-17T04:52:35.157Z,3.38
2023-08-17T04:55:02.742Z,3.30
2023-08-17T04:57:31.554Z,3.05
2023-08-17T04:59:58.860Z,2.58
2023-08-17T05:02:25.476Z,3.00
2023-08-17T05:04:52.753Z,3.58
2023-08-17T05:07:19.407Z,3.05
2023-08-17T05:09:46.605Z,3.10
2023-08-17T05:12:14.314Z,2.88
2023-08-17T05:14:40.682Z,3.03
2023-08-17T05:17:07.049Z,3.50
2023-08-17T05:19:33.453Z,2.95
2023-08-17T05:22:00.006Z,3.30
2023-08-17T05:24:26.706Z,3.60
2023-08-17T05:26:53.115Z,3.60
2023-08-17T05:29:19.498Z,4.10
2023-08-17T05:31:46.517Z,3.63
2023-08-17T05:34:14.124Z,3.60
2023-08-17T05:36:41.999Z,3.20
2023-08-17T05:39:08.737Z,3.30
2023-08-17T05:41:35.234Z,3.65
2023-08-17T05:44:01.737Z,3.08
2023-08-17T05:46:28.146Z,3.58
2023-08-17T05:48:54.588Z,4.32
2023-08-17T05:51:21.042Z,5.00
2023-08-17T05:53:47.393Z,5.90
2023-08-17T05:56:13.793Z,4.32
2023-08-17T05:58:41.962Z,5.30
2023-08-17T06:01:09.758Z,4.47
2023-08-17T06:03:37.115Z,3.10
2023-08-17T06:06:04.171Z,3.65
2023-08-17T06:08:30.963Z,3.47
2023-08-17T06:10:57.335Z,3.60
2023-08-17T06:13:23.823Z,2.85
2023-08-17T06:15:50.526Z,3.30
2023-08-17T06:18:17.124Z,3.40
2023-08-17T06:20:43.762Z,2.92
2023-08-17T06:23:10.160Z,3.13
2023-08-17T06:25:36.547Z,3.30
2023-08-17T06:28:03.652Z,2.85
2023-08-17T06:30:30.045Z,2.70
2023-08-17T06:32:56.475Z,3.10
2023-08-17T06:35:22.966Z,2.95
2023-08-17T06:37:49.417Z,3.70
2023-08-17T06:40:15.761Z,3.47
2023-08-17T06:42:42.128Z,2.95
2023-08-17T06:45:08.830Z,3.20
2023-08-17T06:47:35.302Z,3.20
2023-08-17T06:50:01.697Z,3.25
2023-08-17T06:52:28.124Z,3.05
2023-08-17T06:54:54.549Z,3.35
2023-08-17T06:57:22.654Z,3.38
2023-08-17T06:59:49.136Z,2.70
2023-08-17T07:02:15.597Z,2.92
2023-08-17T07:04:42.013Z,3.08
2023-08-17T07:07:08.462Z,2.83
2023-08-17T07:09:35.384Z,2.60
2023-08-17T07:12:01.731Z,3.35
2023-08-17T07:14:29.187Z,3.63
2023-08-17T07:16:55.556Z,2.90
2023-08-17T07:19:31.433Z,3.17
2023-08-17T07:22:09.675Z,3.35
2023-08-17T07:24:36.146Z,3.10
2023-08-17T07:27:02.538Z,3.80
2023-08-17T07:29:28.911Z,3.95
2023-08-17T07:31:55.476Z,3.42
2023-08-17T07:34:22.021Z,3.70
2023-08-17T07:36:48.366Z,3.42
2023-08-17T07:39:14.745Z,3.70
2023-08-17T07:41:41.124Z,3.00
2023-08-17T07:44:07.541Z,3.28
2023-08-17T07:46:33.897Z,4.30
2023-08-17T07:49:00.326Z,4.70
2023-08-17T07:51:26.686Z,3.70
2023-08-17T07:53:53.045Z,3.70
2023-08-17T07:56:19.539Z,3.80
2023-08-17T07:58:45.938Z,4.07
2023-08-17T08:01:12.441Z,4.18
2023-08-17T08:03:38.859Z,4.53
2023-08-17T08:06:05.240Z,4.60
2023-08-17T08:08:31.626Z,5.03
2023-08-17T08:10:58.059Z,4.50
2023-08-17T08:13:24.473Z,4.10
2023-08-17T08:15:50.894Z,4.22
2023-08-17T08:18:17.469Z,5.10
2023-08-17T08:20:43.921Z,4.55
2023-08-17T08:23:10.313Z,4.40
2023-08-17T08:25:36.680Z,3.92
2023-08-17T08:28:03.244Z,4.28
2023-08-17T08:30:29.644Z,4.30
2023-08-17T08:32:58.939Z,3.70
2023-08-17T08:35:25.472Z,3.90
2023-08-17T08:37:52.407Z,4.20
2023-08-17T08:40:19.088Z,4.32
2023-08-17T08:42:45.695Z,4.40
2023-08-17T08:45:12.196Z,4.50
2023-08-17T08:47:39.146Z,4.97
2023-08-17T08:50:06.339Z,4.70
2023-08-17T08:52:38.871Z,4.38
2023-08-17T08:55:28.182Z,4.43
2023-08-17T08:57:55.832Z,4.60
2023-08-17T09:00:23.326Z,5.80
2023-08-17T09:02:50.555Z,4.55
2023-08-17T09:05:17.481Z,4.82
2023-08-17T09:07:44.527Z,5.68
2023-08-17T09:10:11.599Z,5.05
2023-08-17T09:12:41.117Z,5.65
2023-08-17T09:15:08.877Z,5.25
2023-08-17T09:17:35.705Z,4.97
2023-08-17T09:20:02.289Z,5.22
2023-08-17T09:22:42.739Z,5.07
2023-08-17T09:25:22.682Z,3.97
2023-08-17T09:27:49.164Z,4.20
2023-08-17T09:30:19.531Z,5.65
2023-08-17T09:32:48.576Z,5.72
2023-08-17T09:35:15.017Z,5.05
2023-08-17T09:37:41.411Z,5.35
2023-08-17T09:40:09.385Z,4.97
2023-08-17T09:42:36.446Z,4.95
2023-08-17T09:45:03.484Z,5.63
2023-08-17T09:47:30.424Z,4.80
2023-08-17T09:49:57.014Z,5.05
2023-08-17T09:52:25.259Z,4.90
2023-08-17T09:54:55.486Z,5.63
2023-08-17T09:57:23.295Z,4.65
2023-08-17T09:59:54.791Z,5.82
2023-08-17T10:02:27.470Z,5.00
2023-08-17T10:04:58.509Z,4.90
2023-08-17T10:07:33.296Z,5.10
2023-08-17T10:10:05.349Z,4.82
2023-08-17T10:12:39.020Z,4.55
2023-08-17T10:15:09.237Z,4.75
2023-08-17T10:17:47.295Z,4.77
2023-08-17T10:20:15.317Z,4.60
2023-08-17T10:22:52.743Z,4.93
2023-08-17T10:25:21.126Z,4.65
2023-08-17T10:27:49.869Z,5.00
2023-08-17T10:30:16.390Z,4.88
2023-08-17T10:32:46.425Z,4.82
2023-08-17T10:35:14.719Z,5.43
2023-08-17T10:37:41.760Z,4.38
2023-08-17T10:40:14.664Z,4.20
2023-08-17T10:42:41.720Z,4.95
2023-08-17T10:45:30.382Z,4.55
2023-08-17T10:48:06.651Z,4.50
2023-08-17T10:50:34.068Z,4.90
2023-08-17T10:53:09.429Z,5.18
2023-08-17T10:55:41.143Z,4.53
2023-08-17T11:00:43.212Z,4.53
2023-08-17T11:03:11.467Z,4.70
2023-08-17T11:05:54.660Z,5.55
2023-08-17T11:08:29.388Z,4.57
2023-08-17T11:11:13.708Z,4.93
2023-08-17T11:13:41.908Z,4.68
2023-08-17T11:16:12.767Z,4.85
2023-08-17T11:18:42.381Z,4.65
2023-08-17T11:21:10.322Z,4.22
2023-08-17T11:23:38.431Z,4.05
2023-08-17T11:26:05.951Z,4.25
2023-08-17T11:28:42.547Z,3.78
2023-08-17T11:31:13.983Z,3.70
2023-08-17T11:33:41.136Z,3.92
2023-08-17T11:36:09.588Z,4.35
2023-08-17T11:38:39.045Z,4.45
2023-08-17T11:41:07.504Z,3.65
2023-08-17T11:43:34.395Z,3.42
2023-08-17T11:46:02.117Z,3.15
2023-08-17T11:48:29.434Z,3.55
2023-08-17T11:50:56.293Z,3.70
2023-08-17T11:53:23.026Z,3.38
2023-08-17T11:55:55.599Z,3.45
2023-08-17T11:58:44.021Z,3.25
2023-08-17T12:01:12.673Z,3.58
2023-08-17T12:03:40.898Z,3.63
2023-08-17T12:06:07.877Z,3.67
2023-08-17T12:08:35.025Z,3.00
2023-08-17T12:11:03.037Z,3.50
2023-08-17T12:13:36.229Z,2.92
2023-08-17T12:16:03.322Z,3.13
2023-08-17T12:18:32.699Z,3.55
2023-08-17T12:20:59.137Z,3.10
2023-08-17T12:23:25.586Z,3.42
2023-08-17T12:25:55.981Z,4.00
2023-08-17T12:28:24.085Z,2.72
2023-08-17T12:30:59.266Z,3.20
2023-08-17T12:33:25.678Z,3.05
2023-08-17T12:35:52.108Z,3.15
2023-08-17T12:38:18.517Z,3.15
2023-08-17T12:40:44.963Z,3.35
2023-08-17T12:43:15.298Z,2.95
2023-08-17T12:45:42.332Z,3.42
2023-08-17T12:48:08.749Z,2.95
2023-08-17T12:50:35.269Z,3.03
2023-08-17T12:53:01.646Z,3.38
2023-08-17T12:55:27.998Z,3.55
2023-08-17T12:57:54.418Z,3.13
2023-08-17T13:00:20.774Z,2.95
2023-08-17T13:02:50.202Z,2.88
2023-08-17T13:05:16.805Z,3.28
2023-08-17T13:07:43.473Z,2.42
2023-08-17T13:10:10.000Z,2.50
2023-08-17T13:12:36.454Z,2.53
2023-08-17T13:15:02.941Z,2.42
2023-08-17T13:17:29.383Z,2.58
2023-08-17T13:19:55.780Z,2.72
2023-08-17T13:22:22.139Z,2.25
2023-08-17T13:24:48.644Z,2.13
2023-08-17T13:27:15.034Z,2.60
2023-08-17T13:29:41.420Z,2.63
2023-08-17T13:32:07.918Z,2.33
2023-08-17T13:34:34.275Z,2.55
2023-08-17T13:37:00.677Z,2.78
2023-08-17T13:39:27.573Z,2.63
2023-08-17T13:41:53.934Z,2.42
2023-08-17T13:44:20.300Z,3.05
2023-08-17T13:46:46.676Z,2.45
2023-08-17T13:49:13.024Z,2.20
2023-08-17T13:51:39.402Z,2.50
2023-08-17T13:54:05.787Z,2.45
2023-08-17T13:56:32.270Z,2.33
2023-08-17T13:58:58.624Z,2.20
2023-08-17T14:01:25.520Z,2.35
2023-08-17T14:03:52.275Z,2.50
2023-08-17T14:06:18.796Z,2.40
2023-08-17T14:08:45.305Z,2.53
2023-08-17T14:11:11.789Z,2.40
2023-08-17T14:13:39.053Z,2.22
2023-08-17T14:16:06.015Z,2.20
2023-08-17T14:18:32.545Z,2.70
2023-08-17T14:20:58.928Z,2.38
2023-08-17T14:23:25.334Z,2.55
2023-08-17T14:25:53.083Z,2.97
2023-08-17T14:28:19.936Z,2.83
2023-08-17T14:30:52.632Z,2.33
2023-08-17T14:33:19.456Z,2.33
2023-08-17T14:35:45.981Z,3.28
2023-08-17T14:38:14.278Z,3.13
2023-08-17T14:40:45.453Z,2.47
2023-08-17T14:43:14.766Z,2.38
2023-08-17T14:45:44.703Z,2.40
2023-08-17T14:48:11.203Z,2.37
2023-08-17T14:50:39.050Z,2.25
2023-08-17T14:53:08.539Z,2.00
2023-08-17T14:55:35.654Z,2.58
2023-08-17T14:58:03.691Z,2.47
2023-08-17T15:00:33.493Z,2.85
2023-08-17T15:03:24.414Z,2.53
2023-08-17T15:05:51.918Z,2.60
2023-08-17T15:08:18.541Z,2.92
2023-08-17T15:10:44.975Z,2.67
2023-08-17T15:13:11.689Z,2.85
2023-08-17T15:15:38.317Z,2.50
2023-08-17T15:18:05.046Z,2.90
2023-08-17T15:20:31.851Z,2.75
2023-08-17T15:22:58.462Z,2.90
2023-08-17T15:25:24.805Z,2.47
2023-08-17T15:27:51.184Z,2.50
2023-08-17T15:30:17.805Z,3.42
2023-08-17T15:32:44.290Z,2.60
2023-08-17T15:35:14.794Z,2.33
2023-08-17T15:37:50.284Z,2.50
2023-08-17T15:40:16.730Z,2.53
2023-08-17T15:42:43.108Z,2.22
2023-08-17T15:45:09.773Z,2.38
2023-08-17T15:47:36.173Z,2.83
2023-08-17T15:50:02.666Z,2.28
2023-08-17T15:52:29.020Z,2.33
2023-08-17T15:54:55.446Z,2.30
2023-08-17T15:57:22.304Z,2.15
2023-08-17T15:59:51.086Z,2.28
2023-08-17T16:02:18.362Z,2.03
2023-08-17T16:04:44.749Z,1.90
2023-08-17T16:07:11.221Z,2.20
2023-08-17T16:09:38.617Z,2.00
2023-08-17T16:12:05.409Z,2.28
2023-08-17T16:14:32.069Z,2.50
2023-08-17T16:16:58.445Z,2.30
2023-08-17T16:19:24.978Z,2.38
2023-08-17T16:21:51.629Z,2.05
2023-08-17T16:24:17.973Z,2.15
2023-08-17T16:26:44.329Z,2.15
2023-08-17T16:29:10.667Z,1.60
2023-08-17T16:31:37.234Z,1.85
2023-08-17T16:34:03.933Z,2.28
2023-08-17T16:36:35.875Z,2.13
2023-08-17T16:39:02.671Z,2.15
2023-08-17T16:41:29.029Z,2.70
2023-08-17T16:43:55.869Z,2.10
2023-08-17T16:46:23.120Z,2.53
2023-08-17T16:48:49.516Z,1.65
2023-08-17T16:51:15.895Z,2.17
2023-08-17T16:53:50.306Z,2.22
2023-08-17T16:56:17.458Z,2.35
2023-08-17T16:58:43.856Z,2.10
2023-08-17T17:01:14.970Z,2.35
2023-08-17T17:03:42.919Z,2.05
2023-08-17T17:06:09.621Z,2.10
2023-08-17T17:08:36.009Z,2.33
2023-08-17T17:11:02.437Z,2.28
2023-08-17T17:13:28.841Z,2.30
2023-08-17T17:15:55.362Z,2.42
2023-08-17T17:18:21.842Z,1.80
2023-08-17T17:20:48.338Z,2.80
2023-08-17T17:23:14.869Z,2.03
2023-08-17T17:25:41.409Z,2.25
2023-08-17T17:28:07.909Z,2.28
2023-08-17T17:30:34.395Z,2.95
2023-08-17T17:33:00.959Z,2.63
2023-08-17T17:35:27.330Z,2.10
2023-08-17T17:37:53.778Z,2.40
2023-08-17T17:40:20.181Z,2.95
2023-08-17T17:42:46.566Z,2.65
2023-08-17T17:45:13.009Z,2.65
2023-08-17T17:47:39.538Z,2.95
2023-08-17T17:50:07.776Z,2.53
2023-08-17T17:52:34.724Z,2.60
2023-08-17T17:55:01.284Z,2.53
2023-08-17T17:57:28.067Z,2.83
2023-08-17T17:59:55.473Z,2.95
2023-08-17T18:02:25.733Z,2.90
2023-08-17T18:04:52.850Z,2.75
2023-08-17T18:07:19.599Z,2.58
2023-08-17T18:09:46.020Z,2.83
2023-08-17T18:12:12.520Z,3.08
2023-08-17T18:14:39.315Z,3.17
2023-08-17T18:17:05.978Z,3.40
2023-08-17T18:19:32.374Z,3.78
2023-08-17T18:21:58.922Z,2.78
2023-08-17T18:24:25.338Z,3.00
2023-08-17T18:26:51.800Z,3.35
2023-08-17T18:29:18.454Z,3.10
2023-08-17T18:31:44.980Z,3.50
2023-08-17T18:34:11.908Z,2.90
2023-08-17T18:36:38.426Z,3.50
2023-08-17T18:39:05.201Z,2.97
2023-08-17T18:41:31.721Z,2.90
2023-08-17T18:43:58.223Z,3.25
2023-08-17T18:46:24.755Z,3.20
2023-08-17T18:48:51.447Z,2.92
2023-08-17T18:51:17.892Z,3.38
2023-08-17T18:53:45.410Z,2.83
2023-08-17T18:56:11.788Z,2.75
2023-08-17T18:58:38.188Z,3.63
2023-08-17T19:01:04.541Z,3.33
2023-08-17T19:03:31.424Z,3.17
2023-08-17T19:05:58.151Z,2.83
2023-08-17T19:08:24.570Z,3.72
2023-08-17T19:10:51.021Z,2.65
2023-08-17T19:13:17.429Z,3.13
2023-08-17T19:15:45.899Z,3.97
2023-08-17T19:18:12.410Z,2.95
2023-08-17T19:20:38.959Z,3.33
2023-08-17T19:23:05.426Z,3.85
2023-08-17T19:25:31.960Z,2.67
2023-08-17T19:27:58.466Z,2.95
2023-08-17T19:30:24.983Z,3.15
2023-08-17T19:32:57.331Z,3.08
2023-08-17T19:35:25.891Z,3.45
2023-08-17T19:37:58.357Z,3.45
2023-08-17T19:40:24.812Z,2.75
2023-08-17T19:42:51.394Z,3.22
2023-08-17T19:45:18.296Z,2.72
2023-08-17T19:47:45.571Z,3.17
2023-08-17T19:50:12.072Z,3.45
2023-08-17T19:52:38.505Z,3.50
2023-08-17T19:55:05.800Z,3.35
2023-08-17T19:57:32.489Z,3.55
2023-08-17T19:59:59.005Z,3.70
2023-08-17T20:02:25.761Z,2.95
2023-08-17T20:04:52.214Z,3.42
2023-08-17T20:07:18.674Z,3.08
2023-08-17T20:09:45.079Z,2.40
2023-08-17T20:12:11.830Z,3.42
2023-08-17T20:14:39.615Z,3.38
2023-08-17T20:17:06.039Z,3.17
2023-08-17T20:19:35.454Z,3.50
2023-08-17T20:22:01.899Z,3.70
2023-08-17T20:24:31.488Z,3.33
2023-08-17T20:26:58.022Z,3.20
2023-08-17T20:29:24.405Z,3.63
2023-08-17T20:31:51.166Z,2.80
2023-08-17T20:34:17.589Z,2.80
2023-08-17T20:36:44.020Z,3.30
2023-08-17T20:39:11.551Z,2.80
2023-08-17T20:41:38.462Z,2.95
2023-08-17T20:44:05.135Z,3.00
2023-08-17T20:46:31.734Z,3.38
2023-08-17T20:48:58.281Z,3.63
2023-08-17T20:51:25.651Z,3.45
2023-08-17T20:53:53.352Z,3.53
2023-08-17T20:56:21.084Z,3.15
2023-08-17T20:58:47.616Z,3.17
2023-08-17T21:01:14.169Z,3.13
2023-08-17T21:03:40.608Z,3.00
2023-08-17T21:06:07.381Z,3.58
2023-08-17T21:08:34.621Z,3.08
2023-08-17T21:11:01.820Z,2.97
2023-08-17T21:13:28.370Z,3.33
2023-08-17T21:16:08.391Z,3.38
2023-08-17T21:18:35.691Z,3.25
2023-08-17T21:21:02.798Z,3.85
2023-08-17T21:23:32.210Z,3.58
2023-08-17T21:25:59.917Z,3.45
2023-08-17T21:28:26.527Z,3.47
2023-08-17T21:30:53.096Z,3.90
2023-08-17T21:33:19.512Z,3.30
2023-08-17T21:35:45.925Z,3.58
2023-08-17T21:38:12.437Z,3.55
2023-08-17T21:40:38.817Z,3.70
2023-08-17T21:43:05.312Z,3.65
2023-08-17T21:45:31.714Z,3.40
2023-08-17T21:47:58.456Z,3.72
2023-08-17T21:50:24.951Z,3.80
2023-08-17T21:52:52.122Z,3.42
2023-08-17T21:55:18.654Z,3.50
2023-08-17T21:57:45.490Z,3.58
2023-08-17T22:00:12.385Z,4.60
2023-08-17T22:02:38.887Z,4.22
2023-08-17T22:05:05.686Z,3.65
2023-08-17T22:07:32.639Z,4.13
2023-08-17T22:09:59.165Z,3.80
2023-08-17T22:12:25.627Z,4.63
2023-08-17T22:14:52.577Z,3.90
2023-08-17T22:17:19.009Z,3.90
2023-08-17T22:19:45.350Z,4.05
2023-08-17T22:22:12.725Z,4.95
2023-08-17T22:24:51.028Z,4.82
2023-08-17T22:27:18.663Z,4.90
2023-08-17T22:29:45.085Z,4.88
2023-08-17T22:32:11.541Z,4.70
2023-08-17T22:34:37.957Z,4.85
2023-08-17T22:37:04.396Z,4.78
2023-08-17T22:39:30.952Z,4.28
2023-08-17T22:41:57.374Z,3.80
2023-08-17T22:44:23.800Z,4.00
2023-08-17T22:46:50.257Z,4.00
2023-08-17T22:49:16.688Z,4.45
2023-08-17T22:51:43.050Z,4.43
2023-08-17T22:54:09.983Z,3.70
2023-08-17T22:56:36.382Z,4.20
2023-08-17T22:59:03.208Z,4.13
2023-08-17T23:01:29.725Z,3.92
2023-08-17T23:03:56.204Z,3.80
2023-08-17T23:06:22.656Z,4.10
2023-08-17T23:08:49.110Z,4.60
2023-08-17T23:11:16.386Z,4.28
2023-08-17T23:13:42.937Z,3.95
2023-08-17T23:16:10.367Z,4.03
2023-08-17T23:18:36.776Z,3.97
2023-08-17T23:21:03.535Z,4.47
2023-08-17T23:23:29.951Z,3.72
2023-08-17T23:25:56.473Z,4.18
2023-08-17T23:28:22.932Z,3.83
2023-08-17T23:30:49.375Z,3.80
2023-08-17T23:33:15.914Z,3.72
2023-08-17T23:35:42.555Z,4.60
2023-08-17T23:38:10.530Z,3.85
2023-08-17T23:40:36.972Z,3.83
2023-08-17T23:43:03.487Z,3.95
2023-08-17T23:45:30.006Z,4.75
2023-08-17T23:47:56.443Z,3.67
2023-08-17T23:50:23.021Z,3.97
2023-08-17T23:52:49.502Z,4.18
2023-08-17T23:55:16.197Z,4.47
2023-08-17T23:57:42.761Z,3.58
